Hovedside
METAR-TAF:

METAR-TAF

Lufthavner :

Lakselv, Norge

Lakselv lufthavn

breddegrad: 70-04N, lengdegrad: 024-59E, høyde over havet: 0 m

Gjeldene værobservasjon

Denne rapporten ble laget for 20 minutter siden, klokken 14:20 UTC
Vind 3 kt fra Sør-sørvest
Temperatur -17°C
Luftfuktighet 84%
Trykk 1026 hPa
Sikt 10 km eller mer
Få skyer i en høyde av 3800 ft

METAR: ENNA 221420Z 20003KT 9999 FEW038 M17/M19 Q1026 RMK WIND 1800FT 15009KT

Tid: 15:40 (14:40 UTC)

Varsel

Varsel gyldig fra 22. klokken 12 UTC til 23. klokken 12 UTC
Vind 5 kt fra Sør
Sikt 10 km eller mer
Få skyer i en høyde av 2000 ft
Blir
fra 22. klokken 18 UTC til 22. klokken 21 UTC
Vind 15 kt fra Sør
Midlertidig
fra 23. klokken 09 UTC til 23. klokken 12 UTC
Vind 20 kt fra Sør med vindkast opp mot 30 kt

TAF: ENNA 2212/2312 18005KT 9999 FEW020 BECMG 2218/2221 18015KT TEMPO 2309/2312 18020G30KT

Værobservasjoner og værvarsel for over 4000 flyplasser (METAR- og TAF-rapporter).

Tilgjengelige stasjoner er representert av de røde og gule prikkene på kartet.

Hold musepekeren over prikken for å se navnet på stasjonen.

Klikk så for å se værobservasjoner og -varsler.

For å forandre kartet kan du klikke på den grønne knappen med svart kryss for å zoome inn, på den grønne knappen med strek for å zoome ut, eller på de grønne pilene for å se tilstøtende kart.


METAR-TAF: